createdAt,value
2022-07-30T00:00:39.744Z,5.33
2022-07-30T00:02:01.372Z,5.20
2022-07-30T00:03:04.529Z,5.30
2022-07-30T00:04:06.413Z,5.67
2022-07-30T00:05:10.519Z,5.17
2022-07-30T00:06:12.113Z,5.60
2022-07-30T00:07:14.804Z,5.20
2022-07-30T00:08:16.441Z,5.07
2022-07-30T00:09:19.241Z,5.47
2022-07-30T00:10:22.983Z,5.27
2022-07-30T00:11:27.831Z,5.30
2022-07-30T00:12:29.829Z,5.40
2022-07-30T00:13:32.545Z,5.33
2022-07-30T00:14:35.105Z,5.00
2022-07-30T00:15:37.920Z,5.50
2022-07-30T00:16:40.895Z,5.30
2022-07-30T00:17:43.820Z,5.23
2022-07-30T00:18:50.830Z,5.40
2022-07-30T00:19:54.215Z,5.70
2022-07-30T00:21:01.558Z,5.50
2022-07-30T00:22:03.481Z,5.20
2022-07-30T00:23:09.235Z,5.13
2022-07-30T00:24:11.377Z,5.33
2022-07-30T00:25:13.957Z,5.23
2022-07-30T00:26:15.839Z,4.60
2022-07-30T00:27:18.486Z,5.40
2022-07-30T00:28:20.271Z,5.80
2022-07-30T00:29:22.808Z,4.77
2022-07-30T00:30:24.622Z,6.47
2022-07-30T00:31:27.265Z,5.20
2022-07-30T00:32:34.404Z,5.77
2022-07-30T00:33:37.009Z,5.40
2022-07-30T00:34:38.673Z,4.70
2022-07-30T00:35:41.325Z,5.40
2022-07-30T00:36:43.302Z,6.10
2022-07-30T00:37:45.896Z,5.57
2022-07-30T00:38:48.018Z,5.47
2022-07-30T00:39:50.773Z,5.30
2022-07-30T00:40:53.752Z,5.70
2022-07-30T00:41:59.177Z,6.07
2022-07-30T00:43:00.923Z,5.60
2022-07-30T00:44:03.498Z,5.53
2022-07-30T00:45:06.337Z,5.60
2022-07-30T00:46:09.027Z,6.30
2022-07-30T00:47:10.754Z,6.37
2022-07-30T00:48:15.728Z,6.60
2022-07-30T00:49:17.483Z,5.87
2022-07-30T00:50:20.271Z,6.07
2022-07-30T00:51:23.247Z,6.00
2022-07-30T00:52:25.910Z,5.73
2022-07-30T00:53:27.503Z,5.80
2022-07-30T00:54:30.099Z,5.77
2022-07-30T00:55:31.820Z,5.80
2022-07-30T00:56:34.444Z,6.53
2022-07-30T00:57:36.733Z,6.87
2022-07-30T00:58:39.315Z,6.37
2022-07-30T00:59:40.944Z,6.20
2022-07-30T01:00:44.435Z,6.63
2022-07-30T01:01:46.712Z,6.80
2022-07-30T01:02:49.413Z,7.43
2022-07-30T01:03:52.391Z,7.23
2022-07-30T01:04:55.433Z,7.00
2022-07-30T01:05:57.272Z,8.00
2022-07-30T01:07:00.135Z,7.67
2022-07-30T01:08:02.266Z,7.20
2022-07-30T01:09:05.035Z,7.80
2022-07-30T01:10:08.859Z,7.87
2022-07-30T01:11:12.550Z,7.00
2022-07-30T01:12:18.288Z,6.43
2022-07-30T01:13:21.029Z,7.53
2022-07-30T01:14:23.433Z,7.63
2022-07-30T01:15:27.781Z,7.97
2022-07-30T01:16:29.749Z,7.10
2022-07-30T01:17:32.464Z,7.77
2022-07-30T01:18:50.170Z,7.97
2022-07-30T01:19:59.008Z,8.60
2022-07-30T01:21:06.689Z,8.13
2022-07-30T01:22:16.212Z,8.20
2022-07-30T01:23:26.048Z,8.20
2022-07-30T01:24:33.474Z,8.20
2022-07-30T01:25:51.006Z,9.10
2022-07-30T01:26:54.440Z,8.07
2022-07-30T01:28:00.861Z,9.83
2022-07-30T01:29:03.625Z,8.80
2022-07-30T01:30:08.488Z,9.33
2022-07-30T01:31:11.950Z,9.97
2022-07-30T01:32:15.503Z,9.70
2022-07-30T01:33:19.054Z,8.20
2022-07-30T01:34:23.082Z,9.47
2022-07-30T01:35:28.674Z,8.17
2022-07-30T01:36:31.783Z,7.93
2022-07-30T01:37:36.592Z,8.93
2022-07-30T01:38:40.121Z,9.33
2022-07-30T01:39:43.268Z,9.70
2022-07-30T01:40:46.759Z,9.00
2022-07-30T01:41:51.563Z,10.00
2022-07-30T01:42:55.265Z,9.40
2022-07-30T01:43:59.169Z,9.10
2022-07-30T01:45:01.417Z,9.63
2022-07-30T01:46:05.488Z,9.20
2022-07-30T01:47:11.542Z,8.70
2022-07-30T01:48:17.832Z,9.43
2022-07-30T01:49:21.694Z,9.93
2022-07-30T01:50:25.565Z,9.00
2022-07-30T01:51:37.396Z,9.20
2022-07-30T01:52:42.704Z,9.13
2022-07-30T01:53:46.582Z,9.10
2022-07-30T01:54:51.111Z,9.83
2022-07-30T01:55:56.365Z,9.60
2022-07-30T01:57:01.462Z,11.53
2022-07-30T01:58:06.663Z,10.57
2022-07-30T01:59:10.760Z,9.93
2022-07-30T02:00:14.640Z,10.10
2022-07-30T02:01:16.331Z,9.30
2022-07-30T02:02:19.260Z,9.30
2022-07-30T02:03:22.047Z,10.17
2022-07-30T02:04:25.192Z,9.67
2022-07-30T02:05:30.654Z,10.07
2022-07-30T02:06:35.914Z,9.47
2022-07-30T02:07:42.096Z,9.60
2022-07-30T02:08:49.668Z,9.60
2022-07-30T02:09:55.822Z,9.60
2022-07-30T02:11:06.387Z,9.93
2022-07-30T02:12:29.348Z,10.80
2022-07-30T02:13:34.588Z,10.80
2022-07-30T02:14:41.123Z,10.63
2022-07-30T02:15:50.717Z,9.60
2022-07-30T02:16:56.221Z,9.70
2022-07-30T02:18:02.760Z,10.23
2022-07-30T02:19:09.689Z,10.13
2022-07-30T02:20:18.123Z,10.20
2022-07-30T02:21:21.030Z,10.27
2022-07-30T02:22:24.782Z,9.77
2022-07-30T02:23:29.487Z,9.30
2022-07-30T02:24:34.395Z,10.57
2022-07-30T02:25:43.285Z,11.23
2022-07-30T02:26:51.905Z,10.73
2022-07-30T02:27:59.284Z,10.47
2022-07-30T02:29:02.874Z,10.00
2022-07-30T02:30:06.973Z,10.40
2022-07-30T02:31:17.289Z,9.10
2022-07-30T02:32:22.202Z,9.50
2022-07-30T02:33:28.523Z,10.57
2022-07-30T02:34:35.925Z,9.00
2022-07-30T02:35:39.506Z,10.70
2022-07-30T02:36:43.102Z,10.33
2022-07-30T02:37:49.091Z,10.70
2022-07-30T02:38:52.295Z,9.77
2022-07-30T02:39:56.705Z,10.70
2022-07-30T02:41:01.633Z,10.00
2022-07-30T02:42:07.252Z,10.60
2022-07-30T02:43:09.756Z,9.97
2022-07-30T02:44:13.467Z,11.00
2022-07-30T02:45:17.668Z,10.70
2022-07-30T02:46:23.716Z,10.97
2022-07-30T02:47:28.467Z,10.47
2022-07-30T02:48:34.906Z,11.10
2022-07-30T02:49:39.717Z,10.60
2022-07-30T02:50:43.117Z,10.30
2022-07-30T02:51:48.189Z,10.20
2022-07-30T02:52:52.549Z,11.10
2022-07-30T02:53:57.622Z,11.47
2022-07-30T02:55:01.061Z,10.13
2022-07-30T02:56:06.170Z,10.10
2022-07-30T02:57:10.053Z,11.33
2022-07-30T02:58:16.458Z,10.40
2022-07-30T02:59:20.429Z,9.83
2022-07-30T03:00:25.865Z,11.13
2022-07-30T03:01:29.251Z,11.17
2022-07-30T03:02:34.201Z,10.90
2022-07-30T03:03:40.318Z,10.90
2022-07-30T03:04:44.339Z,10.30
2022-07-30T03:05:53.513Z,11.00
2022-07-30T03:06:56.251Z,10.80
2022-07-30T03:08:00.614Z,10.10
2022-07-30T03:09:03.161Z,10.77
2022-07-30T03:10:08.577Z,10.43
2022-07-30T03:11:11.462Z,11.20
2022-07-30T03:12:17.009Z,9.93
2022-07-30T03:13:21.722Z,11.50
2022-07-30T03:14:24.488Z,11.10
2022-07-30T03:15:29.525Z,10.83
2022-07-30T03:16:38.380Z,11.03
2022-07-30T03:17:43.574Z,11.47
2022-07-30T03:18:48.137Z,10.67
2022-07-30T03:19:50.427Z,11.17
2022-07-30T03:20:57.351Z,11.33
2022-07-30T03:22:02.256Z,10.30
2022-07-30T03:23:05.821Z,12.20
2022-07-30T03:24:11.842Z,10.97
2022-07-30T03:25:17.759Z,11.00
2022-07-30T03:26:22.765Z,10.97
2022-07-30T03:27:27.214Z,10.77
2022-07-30T03:28:31.108Z,12.00
2022-07-30T03:29:34.301Z,10.87
2022-07-30T03:30:36.468Z,11.43
2022-07-30T03:31:40.986Z,12.20
2022-07-30T03:32:43.896Z,10.80
2022-07-30T03:33:47.743Z,11.07
2022-07-30T03:34:51.284Z,12.00
2022-07-30T03:35:54.319Z,11.47
2022-07-30T03:36:58.337Z,10.90
2022-07-30T03:38:01.355Z,11.30
2022-07-30T03:39:05.399Z,12.13
2022-07-30T03:40:08.956Z,11.13
2022-07-30T03:41:12.748Z,12.10
2022-07-30T03:42:15.957Z,12.00
2022-07-30T03:43:33.036Z,12.10
2022-07-30T03:44:35.739Z,11.70
2022-07-30T03:45:39.884Z,12.37
2022-07-30T03:46:42.224Z,11.73
2022-07-30T03:47:47.242Z,12.50
2022-07-30T03:48:49.152Z,11.70
2022-07-30T03:49:52.280Z,12.23
2022-07-30T03:50:54.610Z,13.27
2022-07-30T03:51:57.970Z,13.37
2022-07-30T03:53:00.568Z,12.90
2022-07-30T03:54:04.396Z,13.10
2022-07-30T03:55:08.139Z,13.93
2022-07-30T03:56:12.145Z,14.03
2022-07-30T03:57:15.309Z,13.40
2022-07-30T03:58:24.354Z,12.80
2022-07-30T03:59:26.224Z,13.30
2022-07-30T04:00:29.802Z,13.73
2022-07-30T04:01:31.802Z,13.07
2022-07-30T04:02:42.062Z,13.30
2022-07-30T04:03:43.790Z,14.73
2022-07-30T04:04:46.708Z,13.80
2022-07-30T04:05:48.272Z,13.20
2022-07-30T04:06:50.848Z,13.80
2022-07-30T04:07:53.556Z,13.90
2022-07-30T04:08:55.555Z,13.90
2022-07-30T04:09:58.102Z,13.00
2022-07-30T04:10:59.753Z,12.67
2022-07-30T04:12:02.737Z,14.70
2022-07-30T04:13:09.205Z,15.30
2022-07-30T04:14:13.632Z,14.80
2022-07-30T04:16:05.969Z,15.60
2022-07-30T04:16:43.185Z,15.33
2022-07-30T04:17:49.116Z,14.93
2022-07-30T04:18:55.310Z,14.67
2022-07-30T04:20:02.323Z,13.90
2022-07-30T04:21:08.486Z,14.60
2022-07-30T04:22:24.551Z,14.70
2022-07-30T04:23:27.757Z,15.00
2022-07-30T04:24:32.029Z,14.03
2022-07-30T04:25:34.172Z,14.90
2022-07-30T04:26:38.568Z,14.90
2022-07-30T04:28:03.003Z,14.53
2022-07-30T04:29:06.770Z,15.00
2022-07-30T04:30:11.986Z,15.00
2022-07-30T04:31:15.639Z,15.17
2022-07-30T04:32:19.328Z,15.00
2022-07-30T04:33:21.209Z,13.90
2022-07-30T04:34:23.698Z,16.23
2022-07-30T04:35:49.833Z,15.60
2022-07-30T04:36:50.425Z,16.63
2022-07-30T04:37:51.988Z,15.43
2022-07-30T04:38:54.529Z,14.27
2022-07-30T04:39:57.693Z,14.70
2022-07-30T04:41:00.444Z,14.30
2022-07-30T04:42:03.005Z,16.50
2022-07-30T04:43:04.587Z,15.40
2022-07-30T04:44:07.304Z,18.07
2022-07-30T04:45:11.649Z,17.57
2022-07-30T04:46:14.965Z,16.90
2022-07-30T04:47:17.084Z,17.60
2022-07-30T04:48:20.048Z,17.23
2022-07-30T04:49:23.009Z,17.40
2022-07-30T04:50:27.214Z,17.30
2022-07-30T04:51:34.103Z,16.40
2022-07-30T04:52:37.522Z,16.30
2022-07-30T04:53:41.765Z,18.30
2022-07-30T04:54:47.341Z,15.90
2022-07-30T04:55:49.891Z,18.73
2022-07-30T04:56:54.168Z,17.40
2022-07-30T04:57:57.879Z,17.97
2022-07-30T04:59:01.541Z,17.07
2022-07-30T05:00:04.780Z,18.70
2022-07-30T05:01:10.891Z,20.30
2022-07-30T05:02:15.689Z,17.70
2022-07-30T05:03:18.873Z,17.73
2022-07-30T05:04:22.991Z,19.10
2022-07-30T05:05:27.975Z,21.23
2022-07-30T05:06:30.955Z,19.70
2022-07-30T05:07:34.479Z,19.80
2022-07-30T05:08:36.446Z,18.53
2022-07-30T05:09:39.143Z,20.50
2022-07-30T05:10:44.696Z,19.77
2022-07-30T05:11:51.570Z,18.77
2022-07-30T05:12:53.200Z,18.97
2022-07-30T05:13:55.883Z,20.30
2022-07-30T05:14:57.524Z,18.83
2022-07-30T05:16:00.130Z,19.07
2022-07-30T05:17:03.853Z,19.33
2022-07-30T05:18:07.125Z,19.70
2022-07-30T05:19:09.275Z,21.00
2022-07-30T05:20:12.693Z,20.10
2022-07-30T05:21:14.323Z,18.80
2022-07-30T05:22:16.866Z,18.80
2022-07-30T05:23:18.523Z,19.93
2022-07-30T05:24:22.985Z,20.47
2022-07-30T05:25:24.580Z,20.97
2022-07-30T05:26:27.883Z,18.80
2022-07-30T05:27:29.789Z,19.87
2022-07-30T05:28:32.540Z,19.40
2022-07-30T05:29:34.189Z,19.77
2022-07-30T05:30:38.098Z,19.60
2022-07-30T05:31:43.538Z,19.07
2022-07-30T05:32:49.303Z,19.10
2022-07-30T05:33:51.980Z,18.93
2022-07-30T05:34:54.995Z,19.70
2022-07-30T05:35:58.282Z,19.30
2022-07-30T05:37:02.599Z,19.43
2022-07-30T05:38:04.417Z,20.37
2022-07-30T05:39:07.009Z,18.80
2022-07-30T05:40:09.645Z,19.00
2022-07-30T05:41:19.062Z,20.67
2022-07-30T05:42:35.118Z,22.30
2022-07-30T05:43:36.741Z,22.67
2022-07-30T05:44:39.943Z,20.63
2022-07-30T05:45:41.664Z,21.27
2022-07-30T05:46:44.245Z,22.07
2022-07-30T05:47:48.188Z,20.83
2022-07-30T05:48:50.813Z,21.70
2022-07-30T05:49:53.052Z,22.27
2022-07-30T05:50:55.688Z,22.07
2022-07-30T05:51:57.547Z,23.33
2022-07-30T05:53:01.785Z,23.83
2022-07-30T05:54:04.117Z,22.53
2022-07-30T05:55:07.953Z,22.87
2022-07-30T05:56:09.539Z,23.83
2022-07-30T05:57:12.475Z,21.90
2022-07-30T05:58:14.089Z,22.37
2022-07-30T05:59:16.653Z,24.00
2022-07-30T06:00:18.579Z,22.77
2022-07-30T06:01:21.206Z,21.93
2022-07-30T06:02:24.383Z,23.40
2022-07-30T06:03:28.677Z,22.00
2022-07-30T06:04:30.720Z,22.70
2022-07-30T06:05:33.489Z,20.77
2022-07-30T06:06:35.051Z,22.90
2022-07-30T06:07:37.656Z,22.20
2022-07-30T06:08:39.326Z,23.60
2022-07-30T06:09:41.891Z,22.03
2022-07-30T06:10:43.529Z,21.40
2022-07-30T06:11:46.187Z,23.37
2022-07-30T06:12:48.020Z,21.03
2022-07-30T06:13:50.576Z,21.17
2022-07-30T06:14:52.296Z,21.97
2022-07-30T06:15:54.936Z,22.63
2022-07-30T06:16:56.548Z,23.07
2022-07-30T06:18:02.001Z,20.50
2022-07-30T06:19:05.372Z,21.90
2022-07-30T06:20:09.214Z,20.70
2022-07-30T06:21:11.083Z,23.00
2022-07-30T06:22:13.671Z,22.60
2022-07-30T06:23:15.401Z,25.03
2022-07-30T06:24:17.981Z,21.97
2022-07-30T06:25:19.572Z,21.63
2022-07-30T06:26:22.192Z,21.97
2022-07-30T06:27:23.824Z,21.20
2022-07-30T06:28:41.814Z,22.50
2022-07-30T06:29:44.433Z,19.73
2022-07-30T06:30:47.996Z,19.60
2022-07-30T06:31:50.598Z,20.57
2022-07-30T06:32:52.320Z,20.00
2022-07-30T06:33:54.928Z,19.80
2022-07-30T06:35:04.120Z,18.77
2022-07-30T06:36:08.265Z,19.00
2022-07-30T06:37:15.831Z,19.50
2022-07-30T06:38:18.513Z,19.67
2022-07-30T06:39:53.764Z,18.80
2022-07-30T06:40:44.122Z,18.30
2022-07-30T06:41:45.680Z,18.00
2022-07-30T06:42:48.276Z,18.57
2022-07-30T06:43:50.892Z,16.87
2022-07-30T06:44:53.476Z,19.50
2022-07-30T06:45:57.513Z,18.43
2022-07-30T06:47:05.400Z,18.30
2022-07-30T06:48:09.495Z,18.10
2022-07-30T06:49:12.229Z,18.90
2022-07-30T06:50:15.722Z,17.53
2022-07-30T06:51:18.296Z,16.63
2022-07-30T06:52:19.965Z,18.80
2022-07-30T06:53:22.606Z,17.80
2022-07-30T06:54:24.354Z,19.87
2022-07-30T06:55:26.921Z,17.40
2022-07-30T06:56:28.506Z,19.60
2022-07-30T06:57:31.106Z,17.60
2022-07-30T06:58:36.240Z,18.20
2022-07-30T06:59:56.509Z,18.30
2022-07-30T07:01:00.115Z,18.70
2022-07-30T07:02:01.867Z,16.80
2022-07-30T07:03:07.490Z,19.60
2022-07-30T07:04:11.939Z,18.00
2022-07-30T07:05:15.958Z,17.67
2022-07-30T07:06:17.665Z,19.30
2022-07-30T07:07:40.233Z,16.80
2022-07-30T07:08:42.740Z,16.57
2022-07-30T07:09:44.798Z,17.03
2022-07-30T07:10:47.541Z,17.43
2022-07-30T07:11:49.124Z,16.77
2022-07-30T07:12:51.698Z,16.67
2022-07-30T07:13:54.227Z,16.97
2022-07-30T07:14:56.033Z,17.33
2022-07-30T07:15:59.089Z,18.50
2022-07-30T07:17:01.267Z,16.53
2022-07-30T07:18:04.471Z,17.70
2022-07-30T07:19:06.152Z,17.83
2022-07-30T07:20:09.804Z,16.97
2022-07-30T07:21:13.838Z,17.60
2022-07-30T07:22:16.657Z,18.60
2022-07-30T07:23:19.768Z,16.90
2022-07-30T07:24:22.563Z,18.10
2022-07-30T07:25:24.564Z,16.90
2022-07-30T07:26:27.526Z,17.83
2022-07-30T07:27:29.115Z,17.10
2022-07-30T07:28:33.462Z,16.87
2022-07-30T07:29:35.316Z,17.70
2022-07-30T07:30:38.069Z,16.20
2022-07-30T07:32:07.381Z,15.67
2022-07-30T07:33:02.421Z,16.00
2022-07-30T07:34:05.411Z,16.33
2022-07-30T07:35:08.122Z,17.70
2022-07-30T07:36:10.824Z,15.63
2022-07-30T07:37:15.888Z,15.70
2022-07-30T07:38:19.255Z,15.00
2022-07-30T07:39:20.838Z,15.07
2022-07-30T07:40:24.654Z,15.60
2022-07-30T07:41:26.405Z,15.40
2022-07-30T07:42:28.947Z,14.90
2022-07-30T07:43:30.602Z,15.90
2022-07-30T07:44:33.464Z,15.43
2022-07-30T07:45:35.267Z,14.33
2022-07-30T07:46:37.931Z,14.17
2022-07-30T07:47:43.725Z,15.47
2022-07-30T07:48:55.746Z,15.70
2022-07-30T07:49:58.328Z,16.20
2022-07-30T07:51:00.743Z,15.63
2022-07-30T07:52:03.513Z,16.60
2022-07-30T07:53:06.526Z,14.50
2022-07-30T07:54:20.959Z,14.90
2022-07-30T07:55:24.957Z,14.67
2022-07-30T07:56:27.140Z,14.17
2022-07-30T07:57:29.684Z,16.03
2022-07-30T07:58:33.058Z,15.30
2022-07-30T07:59:40.227Z,15.73
2022-07-30T08:00:42.616Z,15.37
2022-07-30T08:01:46.516Z,16.20
2022-07-30T08:02:49.574Z,16.40
2022-07-30T08:03:52.188Z,14.30
2022-07-30T08:04:54.073Z,15.40
2022-07-30T08:06:05.629Z,15.10
2022-07-30T08:07:08.242Z,14.00
2022-07-30T08:08:12.313Z,15.97
2022-07-30T08:09:15.961Z,14.33
2022-07-30T08:10:17.786Z,15.03
2022-07-30T08:11:20.380Z,14.00
2022-07-30T08:12:22.061Z,13.63
2022-07-30T08:13:51.537Z,14.60
2022-07-30T08:14:47.239Z,14.07
2022-07-30T08:15:49.008Z,14.43
2022-07-30T08:16:51.817Z,13.57
2022-07-30T08:17:53.512Z,13.40
2022-07-30T08:18:56.073Z,13.00
2022-07-30T08:19:58.761Z,15.00
2022-07-30T08:21:01.363Z,13.20
2022-07-30T08:22:04.007Z,12.30
2022-07-30T08:23:06.083Z,13.60
2022-07-30T08:24:10.123Z,12.53
2022-07-30T08:25:11.875Z,11.60
2022-07-30T08:26:27.020Z,13.07
2022-07-30T08:27:28.710Z,12.97
2022-07-30T08:28:35.877Z,12.37
2022-07-30T08:29:38.278Z,13.67
2022-07-30T08:30:40.954Z,12.30
2022-07-30T08:31:42.635Z,12.77
2022-07-30T08:32:45.189Z,13.53
2022-07-30T08:33:46.846Z,12.10
2022-07-30T08:34:49.771Z,13.27
2022-07-30T08:35:54.918Z,11.77
2022-07-30T08:37:06.591Z,13.00
2022-07-30T08:38:08.451Z,12.53
2022-07-30T08:39:12.383Z,12.07
2022-07-30T08:40:15.063Z,12.20
2022-07-30T08:41:19.063Z,12.80
2022-07-30T08:42:22.928Z,12.50
2022-07-30T08:43:25.593Z,11.43
2022-07-30T08:44:30.024Z,12.50
2022-07-30T08:45:35.194Z,10.60
2022-07-30T08:46:47.193Z,11.53
2022-07-30T08:47:52.934Z,9.83
2022-07-30T08:48:55.041Z,10.20
2022-07-30T08:50:01.724Z,11.50
2022-07-30T08:51:04.454Z,9.30
2022-07-30T08:52:09.019Z,11.37
2022-07-30T08:53:11.009Z,10.93
2022-07-30T08:54:18.723Z,10.33
2022-07-30T08:55:21.256Z,11.50
2022-07-30T08:56:23.848Z,10.70
2022-07-30T08:57:25.996Z,9.30
2022-07-30T08:58:32.250Z,9.07
2022-07-30T08:59:59.340Z,9.17
2022-07-30T09:00:58.066Z,8.93
2022-07-30T09:02:00.206Z,9.57
2022-07-30T09:03:03.342Z,10.00
2022-07-30T09:05:13.990Z,10.40
2022-07-30T09:06:15.765Z,10.23
2022-07-30T09:07:18.499Z,10.20
2022-07-30T09:08:20.178Z,9.27
2022-07-30T09:09:24.732Z,8.70
2022-07-30T09:10:27.011Z,9.87
2022-07-30T09:11:29.835Z,9.43
2022-07-30T09:12:36.738Z,9.07
2022-07-30T09:13:41.619Z,8.17
2022-07-30T09:15:01.750Z,7.80
2022-07-30T09:16:06.447Z,7.43
2022-07-30T09:17:08.098Z,8.10
2022-07-30T09:18:10.721Z,7.83
2022-07-30T09:19:15.989Z,7.53
2022-07-30T09:20:19.541Z,7.80
2022-07-30T09:21:23.920Z,9.00
2022-07-30T09:22:43.574Z,7.53
2022-07-30T09:24:00.049Z,7.20
2022-07-30T09:25:03.390Z,7.00
2022-07-30T09:26:05.910Z,7.50
2022-07-30T09:27:07.823Z,7.20
2022-07-30T09:28:16.160Z,8.47
2022-07-30T09:29:20.176Z,8.00
2022-07-30T09:30:23.213Z,8.27
2022-07-30T09:31:27.661Z,8.70
2022-07-30T09:32:48.001Z,8.67
2022-07-30T09:33:50.600Z,7.93
2022-07-30T09:34:52.684Z,8.57
2022-07-30T09:35:57.215Z,7.00
2022-07-30T09:37:01.461Z,9.07
2022-07-30T09:38:06.648Z,9.43
2022-07-30T09:39:08.495Z,8.47
2022-07-30T09:40:19.105Z,7.23
2022-07-30T09:41:40.245Z,8.80
2022-07-30T09:42:42.184Z,7.17
2022-07-30T09:43:48.753Z,6.57
2022-07-30T09:44:50.832Z,7.30
2022-07-30T09:45:57.250Z,7.10
2022-07-30T09:46:59.404Z,6.70
2022-07-30T09:48:02.700Z,7.17
2022-07-30T09:49:14.645Z,7.33
2022-07-30T09:50:30.518Z,6.60
2022-07-30T09:51:56.023Z,5.57
2022-07-30T09:53:08.943Z,5.20
2022-07-30T09:54:11.896Z,6.10
2022-07-30T09:55:16.378Z,5.40
2022-07-30T09:56:25.779Z,5.53
2022-07-30T09:57:28.718Z,5.03
2022-07-30T09:58:45.503Z,5.20
2022-07-30T09:59:47.488Z,5.27
2022-07-30T10:00:58.153Z,6.43
2022-07-30T10:02:04.138Z,4.50
2022-07-30T10:03:21.731Z,4.37
2022-07-30T10:04:34.957Z,4.00
2022-07-30T10:05:51.390Z,4.13
2022-07-30T10:06:55.999Z,5.00
2022-07-30T10:08:01.112Z,4.30
2022-07-30T10:09:14.213Z,5.40
2022-07-30T10:10:25.527Z,4.00
2022-07-30T10:11:31.338Z,5.07
2022-07-30T10:12:34.917Z,4.60
2022-07-30T10:13:45.578Z,5.67
2022-07-30T10:14:50.521Z,5.10
2022-07-30T10:15:53.529Z,5.50
2022-07-30T10:16:55.484Z,5.03
2022-07-30T10:17:59.234Z,5.70
2022-07-30T10:19:01.653Z,6.23
2022-07-30T10:20:08.252Z,4.90
2022-07-30T10:21:11.627Z,4.57
2022-07-30T10:22:14.661Z,4.63
2022-07-30T10:23:27.149Z,4.00
2022-07-30T10:24:31.192Z,3.60
2022-07-30T10:25:49.062Z,4.20
2022-07-30T10:26:57.666Z,3.90
2022-07-30T10:28:00.093Z,4.20
2022-07-30T10:29:05.858Z,4.53
2022-07-30T10:30:08.500Z,5.80
2022-07-30T10:31:47.134Z,5.17
2022-07-30T10:32:38.500Z,5.47
2022-07-30T10:33:45.231Z,5.07
2022-07-30T10:34:48.978Z,4.23
2022-07-30T10:35:51.685Z,4.23
2022-07-30T10:37:01.818Z,4.20
2022-07-30T10:38:13.650Z,4.10
2022-07-30T10:39:21.530Z,4.50
2022-07-30T10:40:30.844Z,3.97
2022-07-30T10:41:53.909Z,3.80
2022-07-30T10:43:15.970Z,4.07
2022-07-30T10:44:35.275Z,4.10
2022-07-30T10:45:47.330Z,4.77
2022-07-30T10:47:01.182Z,4.63
2022-07-30T10:48:11.870Z,4.60
2022-07-30T10:49:18.763Z,5.13
2022-07-30T10:50:26.631Z,4.57
2022-07-30T10:51:46.598Z,4.47
2022-07-30T10:52:51.020Z,4.77
2022-07-30T10:53:53.572Z,4.90
2022-07-30T10:54:56.172Z,4.60
2022-07-30T10:56:13.812Z,4.90
2022-07-30T10:57:26.628Z,5.77
2022-07-30T10:59:02.997Z,3.93
2022-07-30T11:00:09.923Z,4.13
2022-07-30T11:01:17.907Z,4.07
2022-07-30T11:02:20.396Z,3.83
2022-07-30T11:03:41.070Z,4.10
2022-07-30T11:04:47.769Z,3.97
2022-07-30T11:05:51.552Z,3.90
2022-07-30T11:07:17.353Z,4.13
2022-07-30T11:08:35.912Z,3.80
2022-07-30T11:09:41.819Z,4.70
2022-07-30T11:10:44.830Z,4.30
2022-07-30T11:12:04.990Z,4.07
2022-07-30T11:13:10.706Z,5.10
2022-07-30T11:14:12.677Z,4.80
2022-07-30T11:15:18.683Z,4.87
2022-07-30T11:16:22.530Z,4.77
2022-07-30T11:17:25.444Z,4.47
2022-07-30T11:18:28.796Z,4.80
2022-07-30T11:19:53.391Z,4.37
2022-07-30T11:21:17.114Z,5.17
2022-07-30T11:22:25.030Z,4.40
2022-07-30T11:23:40.306Z,4.90
2022-07-30T11:24:43.474Z,4.40
2022-07-30T11:25:51.171Z,4.70
2022-07-30T11:26:57.251Z,4.43
2022-07-30T11:28:00.721Z,4.33
2022-07-30T11:29:06.640Z,5.30
2022-07-30T11:30:32.186Z,4.33
2022-07-30T11:31:56.466Z,4.67
2022-07-30T11:33:23.557Z,4.70
2022-07-30T11:34:34.746Z,4.97
2022-07-30T11:35:37.627Z,4.60
2022-07-30T11:37:18.600Z,4.20
2022-07-30T11:38:24.698Z,4.50
2022-07-30T11:40:11.796Z,4.00
2022-07-30T11:41:14.391Z,4.30
2022-07-30T11:42:25.985Z,3.77
2022-07-30T11:43:36.107Z,4.13
2022-07-30T11:44:38.731Z,4.60
2022-07-30T11:45:42.143Z,3.60
2022-07-30T11:46:48.436Z,4.20
2022-07-30T11:47:52.731Z,4.73
2022-07-30T11:49:00.117Z,4.37
2022-07-30T11:50:02.177Z,4.70
2022-07-30T11:51:05.197Z,4.60
2022-07-30T11:52:08.488Z,3.93
2022-07-30T11:53:16.896Z,4.60
2022-07-30T11:54:18.806Z,4.20
2022-07-30T11:55:28.143Z,4.27
2022-07-30T11:56:31.429Z,4.10
2022-07-30T11:57:39.824Z,4.10
2022-07-30T11:58:44.701Z,3.57
2022-07-30T11:59:55.293Z,3.83
2022-07-30T12:01:00.864Z,3.80
2022-07-30T12:02:04.604Z,4.53
2022-07-30T12:03:11.593Z,4.60
2022-07-30T12:04:14.286Z,4.07
2022-07-30T12:05:17.009Z,4.70
2022-07-30T12:06:20.489Z,4.53
2022-07-30T12:07:23.025Z,4.40
2022-07-30T12:08:33.451Z,4.10
2022-07-30T12:09:37.791Z,3.97
2022-07-30T12:10:56.931Z,3.40
2022-07-30T12:12:02.269Z,3.67
2022-07-30T12:13:08.583Z,4.00
2022-07-30T12:14:11.182Z,3.57
2022-07-30T12:15:28.960Z,3.30
2022-07-30T12:16:33.582Z,3.17
2022-07-30T12:17:43.331Z,3.30
2022-07-30T12:18:47.575Z,3.20
2022-07-30T12:19:49.640Z,3.00
2022-07-30T12:20:59.515Z,3.17
2022-07-30T12:22:02.370Z,3.30
2022-07-30T12:23:10.461Z,3.80
2022-07-30T12:24:13.598Z,3.00
2022-07-30T12:25:15.644Z,3.50
2022-07-30T12:26:24.488Z,3.43
2022-07-30T12:27:28.526Z,2.80
2022-07-30T12:28:32.868Z,3.20
2022-07-30T12:29:35.974Z,3.20
2022-07-30T12:30:39.684Z,2.97
2022-07-30T12:31:43.230Z,2.80
2022-07-30T12:32:46.856Z,2.90
2022-07-30T12:33:49.579Z,2.43
2022-07-30T12:34:55.852Z,2.63
2022-07-30T12:36:01.348Z,3.53
2022-07-30T12:37:10.548Z,2.83
2022-07-30T12:38:13.628Z,2.53
2022-07-30T12:39:20.245Z,2.70
2022-07-30T12:40:22.899Z,2.60
2022-07-30T12:41:41.764Z,2.80
2022-07-30T12:42:51.519Z,3.10
2022-07-30T12:43:57.409Z,2.93
2022-07-30T12:44:59.860Z,2.70
2022-07-30T12:46:02.473Z,3.40
2022-07-30T12:47:07.194Z,2.50
2022-07-30T12:48:11.936Z,2.73
2022-07-30T12:49:22.058Z,2.90
2022-07-30T12:50:26.323Z,2.47
2022-07-30T12:51:32.491Z,3.20
2022-07-30T12:52:37.673Z,2.97
2022-07-30T12:53:40.655Z,2.50
2022-07-30T12:54:43.061Z,2.60
2022-07-30T12:55:46.210Z,2.50
2022-07-30T12:57:00.524Z,3.40
2022-07-30T12:58:08.335Z,2.90
2022-07-30T12:59:21.381Z,2.57
2022-07-30T13:00:25.499Z,2.40
2022-07-30T13:01:41.799Z,2.30
2022-07-30T13:02:47.444Z,2.53
2022-07-30T13:03:51.552Z,2.47
2022-07-30T13:05:10.302Z,2.50
2022-07-30T13:06:16.779Z,2.87
2022-07-30T13:07:18.611Z,2.20
2022-07-30T13:08:22.188Z,2.20
2022-07-30T13:09:23.760Z,2.70
2022-07-30T13:10:31.052Z,2.37
2022-07-30T13:11:48.427Z,2.10
2022-07-30T13:12:52.270Z,2.30
2022-07-30T13:13:55.423Z,2.30
2022-07-30T13:14:56.969Z,2.17
2022-07-30T13:16:01.242Z,2.20
2022-07-30T13:17:07.114Z,3.00
2022-07-30T13:18:09.767Z,2.30
2022-07-30T13:19:12.283Z,2.27
2022-07-30T13:20:15.977Z,2.23
2022-07-30T13:21:18.512Z,2.23
2022-07-30T13:22:20.154Z,1.90
2022-07-30T13:23:24.208Z,2.20
2022-07-30T13:24:27.449Z,1.80
2022-07-30T13:25:38.537Z,1.80
2022-07-30T13:26:41.636Z,1.80
2022-07-30T13:27:43.271Z,2.00
2022-07-30T13:28:47.472Z,1.80
2022-07-30T13:29:49.047Z,2.40
2022-07-30T13:30:51.855Z,2.10
2022-07-30T13:31:54.405Z,2.00
2022-07-30T13:32:55.978Z,1.77
2022-07-30T13:33:59.614Z,1.70
2022-07-30T13:35:02.277Z,1.90
2022-07-30T13:36:05.137Z,1.83
2022-07-30T13:37:07.633Z,2.07
2022-07-30T13:38:11.413Z,2.20
2022-07-30T13:39:13.157Z,2.30
2022-07-30T13:40:15.666Z,2.20
2022-07-30T13:41:18.508Z,2.23
2022-07-30T13:42:22.022Z,2.00
2022-07-30T13:43:23.780Z,2.10
2022-07-30T13:44:28.123Z,2.50
2022-07-30T13:45:30.592Z,2.07
2022-07-30T13:46:33.406Z,2.27
2022-07-30T13:47:36.252Z,2.20
2022-07-30T13:48:39.180Z,3.13
2022-07-30T13:49:46.256Z,2.17
2022-07-30T13:50:47.929Z,2.07
2022-07-30T13:51:50.846Z,2.03
2022-07-30T13:52:52.813Z,2.40
2022-07-30T13:53:55.751Z,2.77
2022-07-30T13:54:58.322Z,2.53
2022-07-30T13:55:59.976Z,2.10
2022-07-30T13:57:02.850Z,2.40
2022-07-30T13:58:06.641Z,2.40
2022-07-30T13:59:10.226Z,2.27
2022-07-30T14:00:15.119Z,2.20
2022-07-30T14:01:18.551Z,2.70
2022-07-30T14:02:20.273Z,2.20
2022-07-30T14:03:22.947Z,2.47
2022-07-30T14:04:24.544Z,2.73
2022-07-30T14:05:27.689Z,2.23
2022-07-30T14:06:33.825Z,2.50
2022-07-30T14:07:37.569Z,1.90
2022-07-30T14:08:39.278Z,2.17
2022-07-30T14:09:45.897Z,2.10
2022-07-30T14:10:50.461Z,1.80
2022-07-30T14:11:52.050Z,2.13
2022-07-30T14:12:56.123Z,2.37
2022-07-30T14:13:57.733Z,1.90
2022-07-30T14:15:00.482Z,2.10
2022-07-30T14:16:08.229Z,1.87